sensor_id;sensor_type;location;lat;lon;timestamp;P1;P2;P0
62778;PMS7003;48821;48.796;2.396;2022-07-29T05:36:54;7.50;7.50;7.25
62778;PMS7003;48821;48.796;2.396;2022-07-29T05:38:04;11.00;10.50;8.50
62778;PMS7003;48821;48.796;2.396;2022-07-29T05:39:14;11.00;11.00;8.25
62778;PMS7003;48821;48.796;2.396;2022-07-29T05:40:25;9.50;9.50;6.50
62778;PMS7003;48821;48.796;2.396;2022-07-29T05:41:35;12.50;10.00;9.25
62778;PMS7003;48821;48.796;2.396;2022-07-29T05:42:45;9.00;8.25;7.00
62778;PMS7003;48821;48.796;2.396;2022-07-29T05:43:56;11.00;10.00;8.25
62778;PMS7003;48821;48.796;2.396;2022-07-29T05:45:06;9.75;7.50;6.50
62778;PMS7003;48821;48.796;2.396;2022-07-29T05:46:17;9.25;7.75;7.00
62778;PMS7003;48821;48.796;2.396;2022-07-29T05:47:28;11.75;10.25;7.00
62778;PMS7003;48821;48.796;2.396;2022-07-29T05:48:38;8.50;8.50;6.50
62778;PMS7003;48821;48.796;2.396;2022-07-29T05:49:48;10.75;9.25;7.75
62778;PMS7003;48821;48.796;2.396;2022-07-29T05:50:59;10.25;10.00;8.00
62778;PMS7003;48821;48.796;2.396;2022-07-29T05:52:09;9.00;8.25;7.00
62778;PMS7003;48821;48.796;2.396;2022-07-29T05:53:20;10.00;10.00;8.25
62778;PMS7003;48821;48.796;2.396;2022-07-29T05:54:30;10.00;9.25;7.00
62778;PMS7003;48821;48.796;2.396;2022-07-29T05:55:40;8.25;8.25;7.25
62778;PMS7003;48821;48.796;2.396;2022-07-29T05:56:51;12.00;9.00;8.00
62778;PMS7003;48821;48.796;2.396;2022-07-29T05:58:01;11.50;9.50;7.50
62778;PMS7003;48821;48.796;2.396;2022-07-29T05:59:12;10.50;8.25;7.00
62778;PMS7003;48821;48.796;2.396;2022-07-29T06:00:22;10.50;9.00;8.00
62778;PMS7003;48821;48.796;2.396;2022-07-29T06:01:33;9.75;9.25;7.00
62778;PMS7003;48821;48.796;2.396;2022-07-29T06:02:43;10.50;8.75;7.75
62778;PMS7003;48821;48.796;2.396;2022-07-29T06:03:53;9.25;9.00;8.00
62778;PMS7003;48821;48.796;2.396;2022-07-29T06:05:04;14.25;11.00;9.75
62778;PMS7003;48821;48.796;2.396;2022-07-29T06:06:15;11.00;9.25;8.25
62778;PMS7003;48821;48.796;2.396;2022-07-29T06:07:25;11.25;9.75;8.00
62778;PMS7003;48821;48.796;2.396;2022-07-29T06:08:36;9.75;8.00;7.50
62778;PMS7003;48821;48.796;2.396;2022-07-29T06:09:46;10.00;10.00;8.00
62778;PMS7003;48821;48.796;2.396;2022-07-29T06:10:56;10.00;9.25;7.25
62778;PMS7003;48821;48.796;2.396;2022-07-29T06:12:07;12.25;9.25;7.75
62778;PMS7003;48821;48.796;2.396;2022-07-29T06:13:18;10.00;10.00;8.50
62778;PMS7003;48821;48.796;2.396;2022-07-29T06:14:28;12.50;11.00;9.00
62778;PMS7003;48821;48.796;2.396;2022-07-29T06:15:38;8.75;8.00;7.00
62778;PMS7003;48821;48.796;2.396;2022-07-29T06:16:48;8.50;8.00;7.25
62778;PMS7003;48821;48.796;2.396;2022-07-29T06:17:59;11.00;10.00;8.00
62778;PMS7003;48821;48.796;2.396;2022-07-29T06:19:09;10.25;7.50;7.00
62778;PMS7003;48821;48.796;2.396;2022-07-29T06:20:19;10.25;9.25;8.00
62778;PMS7003;48821;48.796;2.396;2022-07-29T06:21:30;9.75;8.00;6.75
62778;PMS7003;48821;48.796;2.396;2022-07-29T06:22:40;13.00;10.00;8.00
62778;PMS7003;48821;48.796;2.396;2022-07-29T06:23:51;11.75;11.00;8.00
62778;PMS7003;48821;48.796;2.396;2022-07-29T06:25:02;12.00;10.00;8.00
62778;PMS7003;48821;48.796;2.396;2022-07-29T06:26:13;12.50;8.25;7.00
62778;PMS7003;48821;48.796;2.396;2022-07-29T06:27:23;13.25;8.75;8.00
62778;PMS7003;48821;48.796;2.396;2022-07-29T06:28:34;14.50;9.50;8.00
62778;PMS7003;48821;48.796;2.396;2022-07-29T06:29:44;8.50;8.00;7.00
62778;PMS7003;48821;48.796;2.396;2022-07-29T06:30:54;12.00;9.75;8.00
62778;PMS7003;48821;48.796;2.396;2022-07-29T06:32:05;10.75;10.25;8.00
62778;PMS7003;48821;48.796;2.396;2022-07-29T06:33:16;11.50;10.50;8.75
62778;PMS7003;48821;48.796;2.396;2022-07-29T06:34:28;13.75;11.75;9.25
62778;PMS7003;48821;48.796;2.396;2022-07-29T06:35:39;12.00;11.00;9.75
62778;PMS7003;48821;48.796;2.396;2022-07-29T06:36:51;15.50;10.00;8.25
62778;PMS7003;48821;48.796;2.396;2022-07-29T06:38:02;12.25;10.75;9.00
62778;PMS7003;48821;48.796;2.396;2022-07-29T06:39:13;14.00;10.50;8.50
62778;PMS7003;48821;48.796;2.396;2022-07-29T06:40:23;14.00;11.50;9.00
62778;PMS7003;48821;48.796;2.396;2022-07-29T06:41:52;11.00;11.00;9.25
62778;PMS7003;48821;48.796;2.396;2022-07-29T06:43:03;16.50;9.25;8.25
62778;PMS7003;48821;48.796;2.396;2022-07-29T06:44:13;14.25;12.00;9.25
62778;PMS7003;48821;48.796;2.396;2022-07-29T06:45:24;11.00;11.00;9.00
62778;PMS7003;48821;48.796;2.396;2022-07-29T06:46:34;14.00;12.00;10.00
62778;PMS7003;48821;48.796;2.396;2022-07-29T06:47:44;14.00;12.25;9.25
62778;PMS7003;48821;48.796;2.396;2022-07-29T06:48:55;11.25;10.25;9.00
62778;PMS7003;48821;48.796;2.396;2022-07-29T06:50:05;10.75;10.75;9.75
62778;PMS7003;48821;48.796;2.396;2022-07-29T06:51:16;15.75;14.00;11.00
62778;PMS7003;48821;48.796;2.396;2022-07-29T06:52:27;12.00;11.00;8.75
62778;PMS7003;48821;48.796;2.396;2022-07-29T06:53:37;10.75;10.50;9.00
62778;PMS7003;48821;48.796;2.396;2022-07-29T06:54:48;10.50;10.50;8.75
62778;PMS7003;48821;48.796;2.396;2022-07-29T06:55:59;11.50;10.75;8.25
62778;PMS7003;48821;48.796;2.396;2022-07-29T06:57:11;13.75;10.50;9.00
62778;PMS7003;48821;48.796;2.396;2022-07-29T06:58:21;10.75;10.75;8.25
62778;PMS7003;48821;48.796;2.396;2022-07-29T06:59:31;12.25;10.50;9.25
62778;PMS7003;48821;48.796;2.396;2022-07-29T07:00:42;14.50;12.25;10.25
62778;PMS7003;48821;48.796;2.396;2022-07-29T07:01:52;16.25;11.50;9.25
62778;PMS7003;48821;48.796;2.396;2022-07-29T07:03:03;14.75;11.00;9.75
62778;PMS7003;48821;48.796;2.396;2022-07-29T07:04:13;14.00;10.25;8.25
62778;PMS7003;48821;48.796;2.396;2022-07-29T07:05:24;7.75;7.00;6.00
62778;PMS7003;48821;48.796;2.396;2022-07-29T07:06:34;14.00;11.50;8.50
62778;PMS7003;48821;48.796;2.396;2022-07-29T07:07:45;13.00;9.50;7.75
62778;PMS7003;48821;48.796;2.396;2022-07-29T07:08:55;12.00;11.00;9.00
62778;PMS7003;48821;48.796;2.396;2022-07-29T07:10:05;11.50;11.00;9.25
62778;PMS7003;48821;48.796;2.396;2022-07-29T07:11:16;13.00;10.00;8.00
62778;PMS7003;48821;48.796;2.396;2022-07-29T07:12:26;13.25;10.25;8.50
62778;PMS7003;48821;48.796;2.396;2022-07-29T07:13:37;7.25;7.25;6.25
62778;PMS7003;48821;48.796;2.396;2022-07-29T07:14:47;10.50;8.75;7.25
62778;PMS7003;48821;48.796;2.396;2022-07-29T07:15:58;9.75;9.25;7.75
62778;PMS7003;48821;48.796;2.396;2022-07-29T07:17:08;13.00;10.25;8.75
62778;PMS7003;48821;48.796;2.396;2022-07-29T07:18:18;11.25;9.25;7.50
62778;PMS7003;48821;48.796;2.396;2022-07-29T07:19:29;13.75;11.00;8.75
62778;PMS7003;48821;48.796;2.396;2022-07-29T07:20:39;10.50;8.50;7.25
62778;PMS7003;48821;48.796;2.396;2022-07-29T07:21:50;11.25;10.00;8.00
62778;PMS7003;48821;48.796;2.396;2022-07-29T07:23:00;7.25;7.25;6.25
62778;PMS7003;48821;48.796;2.396;2022-07-29T07:24:10;8.00;8.00;7.00
62778;PMS7003;48821;48.796;2.396;2022-07-29T07:25:21;8.50;8.50;7.25
62778;PMS7003;48821;48.796;2.396;2022-07-29T07:26:31;8.00;7.25;5.75
62778;PMS7003;48821;48.796;2.396;2022-07-29T07:27:42;11.00;9.00;7.25
62778;PMS7003;48821;48.796;2.396;2022-07-29T07:28:53;8.50;8.00;6.50
62778;PMS7003;48821;48.796;2.396;2022-07-29T07:30:04;8.00;8.00;6.75
62778;PMS7003;48821;48.796;2.396;2022-07-29T07:31:15;9.00;9.00;6.50
62778;PMS7003;48821;48.796;2.396;2022-07-29T07:32:26;10.25;8.75;7.00
62778;PMS7003;48821;48.796;2.396;2022-07-29T07:33:36;10.75;7.50;6.00
62778;PMS7003;48821;48.796;2.396;2022-07-29T07:34:47;8.75;7.25;5.25
62778;PMS7003;48821;48.796;2.396;2022-07-29T07:35:57;12.00;8.00;7.00
62778;PMS7003;48821;48.796;2.396;2022-07-29T07:37:08;8.75;8.00;5.75
62778;PMS7003;48821;48.796;2.396;2022-07-29T07:38:19;11.75;8.25;7.00
62778;PMS7003;48821;48.796;2.396;2022-07-29T07:39:29;10.00;8.25;7.50
62778;PMS7003;48821;48.796;2.396;2022-07-29T07:40:40;8.25;7.25;6.25
62778;PMS7003;48821;48.796;2.396;2022-07-29T07:41:51;7.25;7.25;6.00
62778;PMS7003;48821;48.796;2.396;2022-07-29T07:43:01;11.50;9.00;7.50
62778;PMS7003;48821;48.796;2.396;2022-07-29T07:44:12;9.00;8.75;6.25
62778;PMS7003;48821;48.796;2.396;2022-07-29T07:45:22;7.75;7.00;6.00
62778;PMS7003;48821;48.796;2.396;2022-07-29T07:46:32;8.75;7.25;6.00
62778;PMS7003;48821;48.796;2.396;2022-07-29T07:47:43;8.00;8.00;6.00
62778;PMS7003;48821;48.796;2.396;2022-07-29T07:48:53;6.50;4.75;4.25
62778;PMS7003;48821;48.796;2.396;2022-07-29T07:50:07;7.75;7.00;5.75
62778;PMS7003;48821;48.796;2.396;2022-07-29T07:51:19;7.25;6.50;5.25
62778;PMS7003;48821;48.796;2.396;2022-07-29T07:52:30;11.00;7.50;5.50
62778;PMS7003;48821;48.796;2.396;2022-07-29T07:53:40;6.50;6.00;5.00
62778;PMS7003;48821;48.796;2.396;2022-07-29T07:54:50;7.75;7.75;6.75
62778;PMS7003;48821;48.796;2.396;2022-07-29T07:56:01;9.00;6.50;6.00
62778;PMS7003;48821;48.796;2.396;2022-07-29T07:57:12;6.25;6.25;5.25
62778;PMS7003;48821;48.796;2.396;2022-07-29T07:58:23;8.50;8.00;6.25
62778;PMS7003;48821;48.796;2.396;2022-07-29T07:59:34;8.25;7.00;5.00
62778;PMS7003;48821;48.796;2.396;2022-07-29T08:00:44;6.75;6.25;5.75
62778;PMS7003;48821;48.796;2.396;2022-07-29T08:01:54;7.00;5.00;4.25
62778;PMS7003;48821;48.796;2.396;2022-07-29T08:03:05;5.25;5.25;4.75
62778;PMS7003;48821;48.796;2.396;2022-07-29T08:04:15;7.75;5.25;5.00
62778;PMS7003;48821;48.796;2.396;2022-07-29T08:05:26;8.50;8.00;6.00
62778;PMS7003;48821;48.796;2.396;2022-07-29T08:06:36;8.25;7.00;6.00
62778;PMS7003;48821;48.796;2.396;2022-07-29T08:07:47;6.75;5.25;5.25
62778;PMS7003;48821;48.796;2.396;2022-07-29T08:08:57;7.25;6.00;5.00
62778;PMS7003;48821;48.796;2.396;2022-07-29T08:10:08;5.75;4.50;4.00
62778;PMS7003;48821;48.796;2.396;2022-07-29T08:11:19;7.00;6.00;4.75
62778;PMS7003;48821;48.796;2.396;2022-07-29T08:12:30;4.25;4.25;4.00
62778;PMS7003;48821;48.796;2.396;2022-07-29T08:13:40;8.50;8.00;6.75
62778;PMS7003;48821;48.796;2.396;2022-07-29T08:14:50;6.50;6.50;5.50
62778;PMS7003;48821;48.796;2.396;2022-07-29T08:16:01;11.25;6.00;5.25
62778;PMS7003;48821;48.796;2.396;2022-07-29T08:17:11;6.25;6.25;5.50
62778;PMS7003;48821;48.796;2.396;2022-07-29T08:18:22;9.50;7.50;7.00
62778;PMS7003;48821;48.796;2.396;2022-07-29T08:19:32;6.75;6.50;4.00
62778;PMS7003;48821;48.796;2.396;2022-07-29T08:20:42;6.00;5.75;5.25
62778;PMS7003;48821;48.796;2.396;2022-07-29T08:21:53;7.75;7.75;6.00
62778;PMS7003;48821;48.796;2.396;2022-07-29T08:23:03;7.75;7.00;5.50
62778;PMS7003;48821;48.796;2.396;2022-07-29T08:24:15;6.25;6.25;5.00
62778;PMS7003;48821;48.796;2.396;2022-07-29T08:25:44;7.75;7.00;6.50
62778;PMS7003;48821;48.796;2.396;2022-07-29T08:26:55;10.25;7.50;5.25
62778;PMS7003;48821;48.796;2.396;2022-07-29T08:28:05;9.25;8.50;6.00
62778;PMS7003;48821;48.796;2.396;2022-07-29T08:29:16;9.75;6.00;5.00
62778;PMS7003;48821;48.796;2.396;2022-07-29T08:30:26;8.00;6.50;6.00
62778;PMS7003;48821;48.796;2.396;2022-07-29T08:31:37;5.50;4.00;3.00
62778;PMS7003;48821;48.796;2.396;2022-07-29T08:32:48;11.00;7.00;6.25
62778;PMS7003;48821;48.796;2.396;2022-07-29T08:34:00;8.00;6.75;6.00
62778;PMS7003;48821;48.796;2.396;2022-07-29T08:35:10;9.25;7.25;5.25
62778;PMS7003;48821;48.796;2.396;2022-07-29T08:36:21;11.00;8.00;6.00
62778;PMS7003;48821;48.796;2.396;2022-07-29T08:37:31;8.00;8.00;6.00
62778;PMS7003;48821;48.796;2.396;2022-07-29T08:38:41;8.50;7.00;6.25
62778;PMS7003;48821;48.796;2.396;2022-07-29T08:39:52;6.50;6.00;5.00
62778;PMS7003;48821;48.796;2.396;2022-07-29T08:41:02;7.75;7.00;5.25
62778;PMS7003;48821;48.796;2.396;2022-07-29T08:42:13;8.50;8.50;6.25
62778;PMS7003;48821;48.796;2.396;2022-07-29T08:43:23;6.50;6.50;5.75
62778;PMS7003;48821;48.796;2.396;2022-07-29T08:44:34;6.50;6.50;5.25
62778;PMS7003;48821;48.796;2.396;2022-07-29T08:45:46;8.75;8.00;6.00
62778;PMS7003;48821;48.796;2.396;2022-07-29T08:46:57;7.00;5.00;4.00
62778;PMS7003;48821;48.796;2.396;2022-07-29T08:48:08;7.00;7.00;5.25
62778;PMS7003;48821;48.796;2.396;2022-07-29T08:49:18;6.25;6.25;5.50
62778;PMS7003;48821;48.796;2.396;2022-07-29T08:50:29;4.00;4.00;4.00
62778;PMS7003;48821;48.796;2.396;2022-07-29T08:51:40;7.25;6.00;5.25
62778;PMS7003;48821;48.796;2.396;2022-07-29T08:52:51;7.75;6.25;6.00
62778;PMS7003;48821;48.796;2.396;2022-07-29T08:54:02;5.75;5.25;4.25
62778;PMS7003;48821;48.796;2.396;2022-07-29T08:55:14;5.75;5.25;4.50
62778;PMS7003;48821;48.796;2.396;2022-07-29T08:56:25;6.75;6.00;5.00
62778;PMS7003;48821;48.796;2.396;2022-07-29T08:57:37;8.00;6.00;5.50
62778;PMS7003;48821;48.796;2.396;2022-07-29T08:58:49;9.25;6.75;5.75
62778;PMS7003;48821;48.796;2.396;2022-07-29T09:00:00;5.00;5.00;4.00
62778;PMS7003;48821;48.796;2.396;2022-07-29T09:01:16;6.50;6.50;5.00
62778;PMS7003;48821;48.796;2.396;2022-07-29T09:02:32;6.00;4.75;4.00
62778;PMS7003;48821;48.796;2.396;2022-07-29T09:03:46;5.25;5.25;4.25
62778;PMS7003;48821;48.796;2.396;2022-07-29T09:04:57;6.75;6.00;4.75
62778;PMS7003;48821;48.796;2.396;2022-07-29T09:06:12;7.75;6.75;5.00
62778;PMS7003;48821;48.796;2.396;2022-07-29T09:07:24;8.00;6.50;5.25
62778;PMS7003;48821;48.796;2.396;2022-07-29T09:08:34;6.25;5.25;5.00
62778;PMS7003;48821;48.796;2.396;2022-07-29T09:09:45;6.00;5.00;5.00
62778;PMS7003;48821;48.796;2.396;2022-07-29T09:10:57;7.25;5.75;5.00
62778;PMS7003;48821;48.796;2.396;2022-07-29T09:12:08;5.00;5.00;4.75
62778;PMS7003;48821;48.796;2.396;2022-07-29T09:13:21;7.50;7.50;5.00
62778;PMS7003;48821;48.796;2.396;2022-07-29T09:14:32;4.50;4.25;3.25
62778;PMS7003;48821;48.796;2.396;2022-07-29T09:15:43;6.75;6.75;5.75
62778;PMS7003;48821;48.796;2.396;2022-07-29T09:16:55;6.75;6.00;5.00
62778;PMS7003;48821;48.796;2.396;2022-07-29T09:18:06;6.25;6.25;5.00
62778;PMS7003;48821;48.796;2.396;2022-07-29T09:19:26;8.50;7.25;6.00
62778;PMS7003;48821;48.796;2.396;2022-07-29T09:20:39;4.25;4.00;3.50
62778;PMS7003;48821;48.796;2.396;2022-07-29T09:22:28;5.25;5.25;4.25
62778;PMS7003;48821;48.796;2.396;2022-07-29T09:23:40;4.00;4.00;4.00
62778;PMS7003;48821;48.796;2.396;2022-07-29T09:24:52;7.00;6.25;5.75
62778;PMS7003;48821;48.796;2.396;2022-07-29T09:26:04;6.50;5.75;5.00
62778;PMS7003;48821;48.796;2.396;2022-07-29T09:27:22;5.00;5.00;4.75
62778;PMS7003;48821;48.796;2.396;2022-07-29T09:28:35;6.25;6.25;5.50
62778;PMS7003;48821;48.796;2.396;2022-07-29T09:30:05;5.75;4.75;4.75
62778;PMS7003;48821;48.796;2.396;2022-07-29T09:31:17;6.25;6.25;4.00
62778;PMS7003;48821;48.796;2.396;2022-07-29T09:32:28;6.00;6.00;5.00
62778;PMS7003;48821;48.796;2.396;2022-07-29T09:33:39;5.00;4.00;4.00
62778;PMS7003;48821;48.796;2.396;2022-07-29T09:35:13;4.75;4.75;4.00
62778;PMS7003;48821;48.796;2.396;2022-07-29T09:37:51;7.00;5.50;5.00
62778;PMS7003;48821;48.796;2.396;2022-07-29T09:39:02;7.25;6.00;5.00
62778;PMS7003;48821;48.796;2.396;2022-07-29T09:40:13;5.25;5.00;4.25
62778;PMS7003;48821;48.796;2.396;2022-07-29T09:41:26;4.75;4.75;4.00
62778;PMS7003;48821;48.796;2.396;2022-07-29T09:42:37;4.75;4.75;3.50
62778;PMS7003;48821;48.796;2.396;2022-07-29T09:43:54;6.50;5.50;4.50
62778;PMS7003;48821;48.796;2.396;2022-07-29T09:45:08;7.50;7.00;4.75
62778;PMS7003;48821;48.796;2.396;2022-07-29T09:46:19;7.00;6.25;5.00
62778;PMS7003;48821;48.796;2.396;2022-07-29T09:47:46;6.25;6.25;4.25
62778;PMS7003;48821;48.796;2.396;2022-07-29T09:49:05;6.50;6.50;6.00
62778;PMS7003;48821;48.796;2.396;2022-07-29T09:50:21;5.00;5.00;5.00
62778;PMS7003;48821;48.796;2.396;2022-07-29T09:51:33;6.25;6.25;5.00
62778;PMS7003;48821;48.796;2.396;2022-07-29T09:52:48;7.75;6.00;4.75
62778;PMS7003;48821;48.796;2.396;2022-07-29T09:54:00;8.50;7.25;5.25
62778;PMS7003;48821;48.796;2.396;2022-07-29T09:55:14;5.50;5.50;4.50
62778;PMS7003;48821;48.796;2.396;2022-07-29T09:56:40;4.25;4.25;4.00
62778;PMS7003;48821;48.796;2.396;2022-07-29T09:57:51;7.25;5.00;5.00
62778;PMS7003;48821;48.796;2.396;2022-07-29T09:59:05;4.00;4.00;3.25
62778;PMS7003;48821;48.796;2.396;2022-07-29T10:00:18;6.00;4.00;3.00
62778;PMS7003;48821;48.796;2.396;2022-07-29T10:01:29;4.00;4.00;4.00
62778;PMS7003;48821;48.796;2.396;2022-07-29T10:02:40;6.00;5.00;4.00
62778;PMS7003;48821;48.796;2.396;2022-07-29T10:03:53;4.75;4.75;3.25
62778;PMS7003;48821;48.796;2.396;2022-07-29T10:05:05;5.75;5.25;5.00
62778;PMS7003;48821;48.796;2.396;2022-07-29T10:06:25;8.00;5.50;5.00
62778;PMS7003;48821;48.796;2.396;2022-07-29T10:08:09;4.00;4.00;4.00
62778;PMS7003;48821;48.796;2.396;2022-07-29T10:09:12;7.00;6.00;4.75
62778;PMS7003;48821;48.796;2.396;2022-07-29T10:10:24;6.00;6.00;5.00
62778;PMS7003;48821;48.796;2.396;2022-07-29T10:11:38;6.25;5.75;5.25
62778;PMS7003;48821;48.796;2.396;2022-07-29T10:12:52;5.00;5.00;4.00
62778;PMS7003;48821;48.796;2.396;2022-07-29T10:14:07;4.25;4.25;4.25
62778;PMS7003;48821;48.796;2.396;2022-07-29T10:15:18;7.00;7.00;5.00
62778;PMS7003;48821;48.796;2.396;2022-07-29T10:16:30;6.00;5.25;5.00
62778;PMS7003;48821;48.796;2.396;2022-07-29T10:17:44;4.00;4.00;4.00
62778;PMS7003;48821;48.796;2.396;2022-07-29T10:18:55;5.00;5.00;4.25
62778;PMS7003;48821;48.796;2.396;2022-07-29T10:20:06;5.00;5.00;5.00
62778;PMS7003;48821;48.796;2.396;2022-07-29T10:21:17;6.50;6.50;5.50
62778;PMS7003;48821;48.796;2.396;2022-07-29T10:22:28;6.00;6.00;5.00
62778;PMS7003;48821;48.796;2.396;2022-07-29T10:23:38;4.00;4.00;4.00
62778;PMS7003;48821;48.796;2.396;2022-07-29T10:24:50;5.00;4.00;3.50
62778;PMS7003;48821;48.796;2.396;2022-07-29T10:26:01;3.50;3.50;3.25
62778;PMS7003;48821;48.796;2.396;2022-07-29T10:27:12;7.00;5.75;4.50
62778;PMS7003;48821;48.796;2.396;2022-07-29T10:28:23;5.00;5.00;4.25
62778;PMS7003;48821;48.796;2.396;2022-07-29T10:29:35;4.25;4.25;3.50
62778;PMS7003;48821;48.796;2.396;2022-07-29T10:30:46;5.25;5.25;5.00
62778;PMS7003;48821;48.796;2.396;2022-07-29T10:32:08;5.75;5.00;4.25
62778;PMS7003;48821;48.796;2.396;2022-07-29T10:40:32;8.00;5.50;5.00
62778;PMS7003;48821;48.796;2.396;2022-07-29T10:42:16;6.00;6.00;5.00
62778;PMS7003;48821;48.796;2.396;2022-07-29T10:43:29;5.75;5.75;5.00
62778;PMS7003;48821;48.796;2.396;2022-07-29T10:44:45;3.75;3.75;3.25
62778;PMS7003;48821;48.796;2.396;2022-07-29T10:45:58;4.50;3.50;2.50
62778;PMS7003;48821;48.796;2.396;2022-07-29T10:47:20;5.00;5.00;4.00
62778;PMS7003;48821;48.796;2.396;2022-07-29T10:48:34;4.50;4.00;3.25
62778;PMS7003;48821;48.796;2.396;2022-07-29T10:49:54;6.50;6.00;4.25
62778;PMS7003;48821;48.796;2.396;2022-07-29T10:51:08;6.25;5.00;4.25
62778;PMS7003;48821;48.796;2.396;2022-07-29T10:52:18;5.00;5.00;4.75
62778;PMS7003;48821;48.796;2.396;2022-07-29T10:54:59;7.00;5.50;5.00
62778;PMS7003;48821;48.796;2.396;2022-07-29T10:57:37;5.50;4.00;3.75
62778;PMS7003;48821;48.796;2.396;2022-07-29T11:00:29;8.75;5.50;4.50
62778;PMS7003;48821;48.796;2.396;2022-07-29T11:01:40;6.00;4.50;4.00
62778;PMS7003;48821;48.796;2.396;2022-07-29T11:02:50;5.50;5.50;4.25
62778;PMS7003;48821;48.796;2.396;2022-07-29T11:04:04;5.25;5.25;4.50
62778;PMS7003;48821;48.796;2.396;2022-07-29T11:05:15;8.00;4.25;4.00
62778;PMS7003;48821;48.796;2.396;2022-07-29T11:06:56;5.00;5.00;4.00
62778;PMS7003;48821;48.796;2.396;2022-07-29T11:09:27;5.25;5.25;4.00
62778;PMS7003;48821;48.796;2.396;2022-07-29T11:10:40;5.25;5.25;4.75
62778;PMS7003;48821;48.796;2.396;2022-07-29T11:11:50;7.00;5.25;4.00
62778;PMS7003;48821;48.796;2.396;2022-07-29T11:13:01;4.50;4.50;3.50
62778;PMS7003;48821;48.796;2.396;2022-07-29T11:14:11;4.50;4.50;3.50
62778;PMS7003;48821;48.796;2.396;2022-07-29T11:15:22;6.00;6.00;4.50
62778;PMS7003;48821;48.796;2.396;2022-07-29T11:17:19;5.25;4.00;4.00
62778;PMS7003;48821;48.796;2.396;2022-07-29T11:18:14;4.00;2.75;2.50
62778;PMS7003;48821;48.796;2.396;2022-07-29T11:19:24;5.25;4.50;3.00
62778;PMS7003;48821;48.796;2.396;2022-07-29T11:21:49;5.25;5.00;4.00
62778;PMS7003;48821;48.796;2.396;2022-07-29T11:23:00;4.00;4.00;3.50
62778;PMS7003;48821;48.796;2.396;2022-07-29T11:24:11;7.00;4.75;4.25
62778;PMS7003;48821;48.796;2.396;2022-07-29T11:25:26;6.00;5.00;4.25
62778;PMS7003;48821;48.796;2.396;2022-07-29T11:26:36;4.00;4.00;4.00
62778;PMS7003;48821;48.796;2.396;2022-07-29T11:27:47;4.50;4.50;4.50
62778;PMS7003;48821;48.796;2.396;2022-07-29T11:29:06;5.50;4.00;4.00
62778;PMS7003;48821;48.796;2.396;2022-07-29T11:30:47;6.50;5.00;4.75
62778;PMS7003;48821;48.796;2.396;2022-07-29T11:32:07;6.00;6.00;5.00
62778;PMS7003;48821;48.796;2.396;2022-07-29T11:33:32;2.25;2.25;2.00
62778;PMS7003;48821;48.796;2.396;2022-07-29T11:34:43;5.00;5.00;4.50
62778;PMS7003;48821;48.796;2.396;2022-07-29T11:36:07;5.00;4.00;4.00
62778;PMS7003;48821;48.796;2.396;2022-07-29T11:37:20;4.50;3.00;3.00
62778;PMS7003;48821;48.796;2.396;2022-07-29T11:38:31;9.00;6.00;5.00
62778;PMS7003;48821;48.796;2.396;2022-07-29T11:40:08;5.00;5.00;4.00
62778;PMS7003;48821;48.796;2.396;2022-07-29T11:43:49;4.75;4.25;3.25
62778;PMS7003;48821;48.796;2.396;2022-07-29T11:45:15;6.25;5.00;4.25
62778;PMS7003;48821;48.796;2.396;2022-07-29T11:46:47;5.75;4.25;3.50
62778;PMS7003;48821;48.796;2.396;2022-07-29T11:47:59;6.00;4.75;4.00
62778;PMS7003;48821;48.796;2.396;2022-07-29T11:49:10;4.50;4.50;4.50
62778;PMS7003;48821;48.796;2.396;2022-07-29T11:50:28;6.00;6.00;5.75
62778;PMS7003;48821;48.796;2.396;2022-07-29T11:51:41;6.00;5.00;5.00
62778;PMS7003;48821;48.796;2.396;2022-07-29T11:52:52;5.00;5.00;5.00
62778;PMS7003;48821;48.796;2.396;2022-07-29T11:54:04;6.50;4.25;4.00
62778;PMS7003;48821;48.796;2.396;2022-07-29T11:55:17;6.50;6.50;5.50
62778;PMS7003;48821;48.796;2.396;2022-07-29T11:56:30;4.50;4.50;4.00
62778;PMS7003;48821;48.796;2.396;2022-07-29T11:57:46;6.00;6.00;5.25
62778;PMS7003;48821;48.796;2.396;2022-07-29T11:59:02;7.00;6.00;5.00
62778;PMS7003;48821;48.796;2.396;2022-07-29T12:01:35;6.00;6.00;5.00
62778;PMS7003;48821;48.796;2.396;2022-07-29T12:02:45;5.00;5.00;4.25
62778;PMS7003;48821;48.796;2.396;2022-07-29T12:04:03;3.75;3.75;3.00
62778;PMS7003;48821;48.796;2.396;2022-07-29T12:05:14;5.00;5.00;5.00
62778;PMS7003;48821;48.796;2.396;2022-07-29T12:06:25;5.00;5.00;4.25
62778;PMS7003;48821;48.796;2.396;2022-07-29T12:07:36;6.00;4.25;4.00
62778;PMS7003;48821;48.796;2.396;2022-07-29T12:08:48;5.75;5.00;4.00
62778;PMS7003;48821;48.796;2.396;2022-07-29T12:09:58;4.75;4.50;4.25
62778;PMS7003;48821;48.796;2.396;2022-07-29T12:11:18;5.50;5.50;5.00
62778;PMS7003;48821;48.796;2.396;2022-07-29T12:12:30;5.00;5.00;5.00
62778;PMS7003;48821;48.796;2.396;2022-07-29T12:13:41;7.00;5.25;5.00
62778;PMS7003;48821;48.796;2.396;2022-07-29T12:14:51;6.00;5.00;4.00
62778;PMS7003;48821;48.796;2.396;2022-07-29T12:16:01;5.00;5.00;4.00
62778;PMS7003;48821;48.796;2.396;2022-07-29T12:17:28;5.50;5.00;5.00
62778;PMS7003;48821;48.796;2.396;2022-07-29T12:18:39;4.75;4.75;4.25
62778;PMS7003;48821;48.796;2.396;2022-07-29T12:19:49;5.25;5.25;5.00
62778;PMS7003;48821;48.796;2.396;2022-07-29T12:21:00;5.25;5.25;4.50
62778;PMS7003;48821;48.796;2.396;2022-07-29T12:22:16;4.25;4.25;4.00
62778;PMS7003;48821;48.796;2.396;2022-07-29T12:23:35;5.25;4.00;4.00
62778;PMS7003;48821;48.796;2.396;2022-07-29T12:24:46;5.00;5.00;4.00
62778;PMS7003;48821;48.796;2.396;2022-07-29T12:25:57;6.00;4.25;4.00
62778;PMS7003;48821;48.796;2.396;2022-07-29T12:27:08;6.00;6.00;4.75
62778;PMS7003;48821;48.796;2.396;2022-07-29T12:28:18;5.75;4.00;3.25
62778;PMS7003;48821;48.796;2.396;2022-07-29T12:29:31;5.00;4.00;3.00
62778;PMS7003;48821;48.796;2.396;2022-07-29T12:30:43;6.00;4.00;4.00
62778;PMS7003;48821;48.796;2.396;2022-07-29T12:31:55;5.75;5.75;5.00
62778;PMS7003;48821;48.796;2.396;2022-07-29T12:34:29;6.00;6.00;5.00
62778;PMS7003;48821;48.796;2.396;2022-07-29T12:35:40;5.25;5.25;4.25
62778;PMS7003;48821;48.796;2.396;2022-07-29T12:36:53;5.00;5.00;4.00
62778;PMS7003;48821;48.796;2.396;2022-07-29T12:38:03;5.25;5.00;4.00
62778;PMS7003;48821;48.796;2.396;2022-07-29T12:39:15;4.00;4.00;3.00
62778;PMS7003;48821;48.796;2.396;2022-07-29T12:40:27;6.00;4.00;3.75
62778;PMS7003;48821;48.796;2.396;2022-07-29T12:41:37;4.75;4.75;3.75
62778;PMS7003;48821;48.796;2.396;2022-07-29T12:43:07;7.00;4.00;3.50
62778;PMS7003;48821;48.796;2.396;2022-07-29T12:44:20;4.00;4.00;3.00
62778;PMS7003;48821;48.796;2.396;2022-07-29T12:45:30;5.25;5.25;4.75
62778;PMS7003;48821;48.796;2.396;2022-07-29T12:46:41;5.75;5.75;4.75
62778;PMS7003;48821;48.796;2.396;2022-07-29T12:47:51;4.50;4.50;4.00
62778;PMS7003;48821;48.796;2.396;2022-07-29T12:49:02;5.00;5.00;5.00
62778;PMS7003;48821;48.796;2.396;2022-07-29T12:50:13;6.25;4.50;3.75
62778;PMS7003;48821;48.796;2.396;2022-07-29T12:51:37;6.75;5.00;4.25
62778;PMS7003;48821;48.796;2.396;2022-07-29T12:52:49;6.25;6.25;6.00
62778;PMS7003;48821;48.796;2.396;2022-07-29T12:55:14;6.00;4.00;4.00
62778;PMS7003;48821;48.796;2.396;2022-07-29T12:56:24;4.00;4.00;3.00
62778;PMS7003;48821;48.796;2.396;2022-07-29T12:57:46;6.00;4.25;4.00
62778;PMS7003;48821;48.796;2.396;2022-07-29T12:59:00;3.00;3.00;3.00
62778;PMS7003;48821;48.796;2.396;2022-07-29T13:00:23;5.25;4.25;4.00
62778;PMS7003;48821;48.796;2.396;2022-07-29T13:01:35;5.00;5.00;4.25
62778;PMS7003;48821;48.796;2.396;2022-07-29T13:02:46;5.50;4.25;4.00